sensor_id;sensor_type;location;lat;lon;timestamp;P1;durP1;ratioP1;P2;durP2;ratioP2
19525;SDS011;9907;42.676;26.348;2023-07-31T00:01:32;7.87;;;2.50;;
19525;SDS011;9907;42.676;26.348;2023-07-31T00:03:57;1.40;;;1.30;;
19525;SDS011;9907;42.676;26.348;2023-07-31T00:06:23;1.50;;;1.40;;
19525;SDS011;9907;42.676;26.348;2023-07-31T00:08:48;1.97;;;1.43;;
19525;SDS011;9907;42.676;26.348;2023-07-31T00:11:13;2.17;;;1.50;;
19525;SDS011;9907;42.676;26.348;2023-07-31T00:13:39;3.33;;;1.53;;
19525;SDS011;9907;42.676;26.348;2023-07-31T00:16:04;2.63;;;1.50;;
19525;SDS011;9907;42.676;26.348;2023-07-31T00:18:30;1.80;;;1.43;;
19525;SDS011;9907;42.676;26.348;2023-07-31T00:20:55;2.53;;;1.70;;
19525;SDS011;9907;42.676;26.348;2023-07-31T00:23:21;2.00;;;1.80;;
19525;SDS011;9907;42.676;26.348;2023-07-31T00:25:46;4.37;;;1.57;;
19525;SDS011;9907;42.676;26.348;2023-07-31T00:28:11;3.40;;;1.70;;
19525;SDS011;9907;42.676;26.348;2023-07-31T00:30:37;4.77;;;2.37;;
19525;SDS011;9907;42.676;26.348;2023-07-31T00:33:03;8.63;;;2.90;;
19525;SDS011;9907;42.676;26.348;2023-07-31T00:35:28;1.50;;;1.40;;
19525;SDS011;9907;42.676;26.348;2023-07-31T00:37:54;2.20;;;1.30;;
19525;SDS011;9907;42.676;26.348;2023-07-31T00:40:19;2.60;;;1.80;;
19525;SDS011;9907;42.676;26.348;2023-07-31T00:42:44;3.10;;;1.67;;
19525;SDS011;9907;42.676;26.348;2023-07-31T00:45:10;6.30;;;2.57;;
19525;SDS011;9907;42.676;26.348;2023-07-31T00:47:35;3.13;;;1.67;;
19525;SDS011;9907;42.676;26.348;2023-07-31T00:50:01;3.60;;;2.07;;
19525;SDS011;9907;42.676;26.348;2023-07-31T00:52:26;1.90;;;1.37;;
19525;SDS011;9907;42.676;26.348;2023-07-31T00:54:52;1.87;;;1.20;;
19525;SDS011;9907;42.676;26.348;2023-07-31T00:57:17;1.50;;;1.40;;
19525;SDS011;9907;42.676;26.348;2023-07-31T00:59:43;1.50;;;1.40;;
19525;SDS011;9907;42.676;26.348;2023-07-31T01:02:09;3.50;;;1.60;;
19525;SDS011;9907;42.676;26.348;2023-07-31T01:04:34;2.63;;;1.50;;
19525;SDS011;9907;42.676;26.348;2023-07-31T01:12:33;2.53;;;1.50;;
19525;SDS011;9907;42.676;26.348;2023-07-31T01:15:06;2.90;;;1.57;;
19525;SDS011;9907;42.676;26.348;2023-07-31T01:17:36;2.73;;;1.40;;
19525;SDS011;9907;42.676;26.348;2023-07-31T01:20:12;1.20;;;1.10;;
19525;SDS011;9907;42.676;26.348;2023-07-31T01:28:30;2.17;;;1.60;;
19525;SDS011;9907;42.676;26.348;2023-07-31T01:31:06;6.07;;;1.80;;
19525;SDS011;9907;42.676;26.348;2023-07-31T01:33:33;2.00;;;1.70;;
19525;SDS011;9907;42.676;26.348;2023-07-31T01:35:59;1.83;;;1.53;;
19525;SDS011;9907;42.676;26.348;2023-07-31T01:38:25;3.13;;;1.40;;
19525;SDS011;9907;42.676;26.348;2023-07-31T01:40:52;1.30;;;1.20;;
19525;SDS011;9907;42.676;26.348;2023-07-31T01:43:18;1.43;;;1.33;;
19525;SDS011;9907;42.676;26.348;2023-07-31T01:45:44;2.73;;;1.30;;
19525;SDS011;9907;42.676;26.348;2023-07-31T01:48:09;2.20;;;1.50;;
19525;SDS011;9907;42.676;26.348;2023-07-31T01:50:34;1.40;;;1.30;;
19525;SDS011;9907;42.676;26.348;2023-07-31T01:53:00;1.37;;;1.27;;
19525;SDS011;9907;42.676;26.348;2023-07-31T01:55:25;3.20;;;1.77;;
19525;SDS011;9907;42.676;26.348;2023-07-31T01:57:51;4.13;;;1.80;;
19525;SDS011;9907;42.676;26.348;2023-07-31T02:00:17;1.80;;;1.43;;
19525;SDS011;9907;42.676;26.348;2023-07-31T02:02:43;1.60;;;1.50;;
19525;SDS011;9907;42.676;26.348;2023-07-31T02:05:08;3.07;;;1.73;;
19525;SDS011;9907;42.676;26.348;2023-07-31T02:07:34;3.87;;;1.53;;
19525;SDS011;9907;42.676;26.348;2023-07-31T02:09:59;1.60;;;1.50;;
19525;SDS011;9907;42.676;26.348;2023-07-31T02:12:25;1.87;;;1.50;;
19525;SDS011;9907;42.676;26.348;2023-07-31T02:14:50;17.73;;;3.47;;
19525;SDS011;9907;42.676;26.348;2023-07-31T02:17:15;3.00;;;2.00;;
19525;SDS011;9907;42.676;26.348;2023-07-31T02:19:41;1.80;;;1.50;;
19525;SDS011;9907;42.676;26.348;2023-07-31T02:22:06;3.30;;;1.73;;
19525;SDS011;9907;42.676;26.348;2023-07-31T02:24:32;5.10;;;2.20;;
19525;SDS011;9907;42.676;26.348;2023-07-31T02:26:57;1.60;;;1.50;;
19525;SDS011;9907;42.676;26.348;2023-07-31T02:29:23;1.50;;;1.40;;
19525;SDS011;9907;42.676;26.348;2023-07-31T02:31:48;3.43;;;1.53;;
19525;SDS011;9907;42.676;26.348;2023-07-31T02:34:14;1.80;;;1.70;;
19525;SDS011;9907;42.676;26.348;2023-07-31T02:36:39;2.17;;;1.70;;
19525;SDS011;9907;42.676;26.348;2023-07-31T02:39:04;1.70;;;1.60;;
19525;SDS011;9907;42.676;26.348;2023-07-31T02:41:30;2.10;;;1.87;;
19525;SDS011;9907;42.676;26.348;2023-07-31T02:43:55;2.53;;;1.60;;
19525;SDS011;9907;42.676;26.348;2023-07-31T02:46:21;2.00;;;1.80;;
19525;SDS011;9907;42.676;26.348;2023-07-31T02:48:49;2.37;;;1.70;;
19525;SDS011;9907;42.676;26.348;2023-07-31T02:51:15;2.67;;;1.90;;
19525;SDS011;9907;42.676;26.348;2023-07-31T02:53:40;9.20;;;2.63;;
19525;SDS011;9907;42.676;26.348;2023-07-31T02:56:06;1.83;;;1.60;;
19525;SDS011;9907;42.676;26.348;2023-07-31T02:58:31;3.33;;;1.70;;
19525;SDS011;9907;42.676;26.348;2023-07-31T03:00:58;3.87;;;2.27;;
19525;SDS011;9907;42.676;26.348;2023-07-31T03:03:24;2.00;;;1.80;;
19525;SDS011;9907;42.676;26.348;2023-07-31T03:05:49;4.83;;;1.77;;
19525;SDS011;9907;42.676;26.348;2023-07-31T03:08:15;2.33;;;1.73;;
19525;SDS011;9907;42.676;26.348;2023-07-31T03:10:40;2.37;;;1.90;;
19525;SDS011;9907;42.676;26.348;2023-07-31T03:13:06;3.63;;;1.70;;
19525;SDS011;9907;42.676;26.348;2023-07-31T03:15:32;2.37;;;1.90;;
19525;SDS011;9907;42.676;26.348;2023-07-31T03:17:57;3.37;;;1.90;;
19525;SDS011;9907;42.676;26.348;2023-07-31T03:20:23;8.63;;;3.00;;
19525;SDS011;9907;42.676;26.348;2023-07-31T03:22:48;8.67;;;2.57;;
19525;SDS011;9907;42.676;26.348;2023-07-31T03:25:13;2.90;;;1.60;;
19525;SDS011;9907;42.676;26.348;2023-07-31T03:27:39;5.47;;;1.73;;
19525;SDS011;9907;42.676;26.348;2023-07-31T03:30:05;4.63;;;1.90;;
19525;SDS011;9907;42.676;26.348;2023-07-31T03:32:31;6.43;;;2.07;;
19525;SDS011;9907;42.676;26.348;2023-07-31T03:34:57;6.57;;;2.90;;
19525;SDS011;9907;42.676;26.348;2023-07-31T03:37:22;3.47;;;2.07;;
19525;SDS011;9907;42.676;26.348;2023-07-31T03:39:48;3.27;;;1.83;;
19525;SDS011;9907;42.676;26.348;2023-07-31T03:42:13;2.77;;;1.87;;
19525;SDS011;9907;42.676;26.348;2023-07-31T03:44:39;26.83;;;6.83;;
19525;SDS011;9907;42.676;26.348;2023-07-31T03:47:05;3.63;;;2.10;;
19525;SDS011;9907;42.676;26.348;2023-07-31T03:49:30;9.10;;;3.40;;
19525;SDS011;9907;42.676;26.348;2023-07-31T03:51:56;7.47;;;2.20;;
19525;SDS011;9907;42.676;26.348;2023-07-31T03:54:21;2.37;;;2.17;;
19525;SDS011;9907;42.676;26.348;2023-07-31T03:56:47;6.13;;;2.90;;
19525;SDS011;9907;42.676;26.348;2023-07-31T03:59:12;2.70;;;2.03;;
19525;SDS011;9907;42.676;26.348;2023-07-31T04:01:38;2.63;;;1.70;;
19525;SDS011;9907;42.676;26.348;2023-07-31T04:04:03;4.23;;;1.70;;
19525;SDS011;9907;42.676;26.348;2023-07-31T04:06:29;4.27;;;1.80;;
19525;SDS011;9907;42.676;26.348;2023-07-31T04:08:54;3.50;;;1.53;;
19525;SDS011;9907;42.676;26.348;2023-07-31T04:11:20;4.53;;;2.00;;
19525;SDS011;9907;42.676;26.348;2023-07-31T04:13:45;7.13;;;2.50;;
19525;SDS011;9907;42.676;26.348;2023-07-31T04:16:11;5.37;;;1.90;;
19525;SDS011;9907;42.676;26.348;2023-07-31T04:18:37;9.03;;;2.17;;
19525;SDS011;9907;42.676;26.348;2023-07-31T04:21:02;5.00;;;2.20;;
19525;SDS011;9907;42.676;26.348;2023-07-31T04:23:28;2.87;;;1.87;;
19525;SDS011;9907;42.676;26.348;2023-07-31T04:25:53;3.93;;;1.67;;
19525;SDS011;9907;42.676;26.348;2023-07-31T04:28:19;3.47;;;2.17;;
19525;SDS011;9907;42.676;26.348;2023-07-31T04:30:44;3.57;;;1.90;;
19525;SDS011;9907;42.676;26.348;2023-07-31T04:33:10;2.10;;;1.90;;
19525;SDS011;9907;42.676;26.348;2023-07-31T04:35:35;5.40;;;2.37;;
19525;SDS011;9907;42.676;26.348;2023-07-31T04:38:01;3.20;;;1.93;;
19525;SDS011;9907;42.676;26.348;2023-07-31T04:40:26;3.83;;;2.13;;
19525;SDS011;9907;42.676;26.348;2023-07-31T04:42:52;5.93;;;2.07;;
19525;SDS011;9907;42.676;26.348;2023-07-31T04:45:18;5.07;;;2.20;;
19525;SDS011;9907;42.676;26.348;2023-07-31T04:47:43;2.27;;;2.03;;
19525;SDS011;9907;42.676;26.348;2023-07-31T04:50:08;2.20;;;2.00;;
19525;SDS011;9907;42.676;26.348;2023-07-31T04:52:34;2.07;;;1.83;;
19525;SDS011;9907;42.676;26.348;2023-07-31T04:55:00;2.63;;;2.10;;
19525;SDS011;9907;42.676;26.348;2023-07-31T04:57:25;2.00;;;1.90;;
19525;SDS011;9907;42.676;26.348;2023-07-31T04:59:51;5.97;;;2.50;;
19525;SDS011;9907;42.676;26.348;2023-07-31T05:02:16;3.20;;;2.23;;
19525;SDS011;9907;42.676;26.348;2023-07-31T05:04:42;6.10;;;2.47;;
19525;SDS011;9907;42.676;26.348;2023-07-31T05:07:07;3.30;;;2.10;;
19525;SDS011;9907;42.676;26.348;2023-07-31T05:09:33;3.27;;;2.00;;
19525;SDS011;9907;42.676;26.348;2023-07-31T05:11:58;2.50;;;1.90;;
19525;SDS011;9907;42.676;26.348;2023-07-31T05:14:23;2.40;;;1.77;;
19525;SDS011;9907;42.676;26.348;2023-07-31T05:16:49;3.50;;;1.97;;
19525;SDS011;9907;42.676;26.348;2023-07-31T05:19:14;6.20;;;2.00;;
19525;SDS011;9907;42.676;26.348;2023-07-31T05:21:40;5.23;;;2.40;;
19525;SDS011;9907;42.676;26.348;2023-07-31T05:24:05;4.37;;;2.60;;
19525;SDS011;9907;42.676;26.348;2023-07-31T05:26:31;6.10;;;3.17;;
19525;SDS011;9907;42.676;26.348;2023-07-31T05:28:56;3.27;;;2.80;;
19525;SDS011;9907;42.676;26.348;2023-07-31T05:31:23;4.43;;;3.13;;
19525;SDS011;9907;42.676;26.348;2023-07-31T05:33:49;3.77;;;3.30;;
19525;SDS011;9907;42.676;26.348;2023-07-31T05:36:15;4.03;;;3.40;;
19525;SDS011;9907;42.676;26.348;2023-07-31T05:38:41;6.03;;;3.13;;
19525;SDS011;9907;42.676;26.348;2023-07-31T05:41:08;6.37;;;3.47;;
19525;SDS011;9907;42.676;26.348;2023-07-31T05:43:34;4.40;;;2.80;;
19525;SDS011;9907;42.676;26.348;2023-07-31T05:45:59;3.73;;;2.57;;
19525;SDS011;9907;42.676;26.348;2023-07-31T05:48:26;3.90;;;2.30;;
19525;SDS011;9907;42.676;26.348;2023-07-31T05:50:51;3.70;;;2.23;;
19525;SDS011;9907;42.676;26.348;2023-07-31T05:53:17;2.57;;;2.30;;
19525;SDS011;9907;42.676;26.348;2023-07-31T05:55:42;5.10;;;2.70;;
19525;SDS011;9907;42.676;26.348;2023-07-31T05:58:08;4.57;;;2.77;;
19525;SDS011;9907;42.676;26.348;2023-07-31T06:00:33;5.03;;;3.50;;
19525;SDS011;9907;42.676;26.348;2023-07-31T06:02:59;5.53;;;3.10;;
19525;SDS011;9907;42.676;26.348;2023-07-31T06:05:24;6.37;;;2.80;;
19525;SDS011;9907;42.676;26.348;2023-07-31T06:07:51;4.87;;;2.23;;
19525;SDS011;9907;42.676;26.348;2023-07-31T06:10:16;4.50;;;2.50;;
19525;SDS011;9907;42.676;26.348;2023-07-31T06:12:42;4.97;;;3.30;;
19525;SDS011;9907;42.676;26.348;2023-07-31T06:15:07;4.37;;;2.93;;
19525;SDS011;9907;42.676;26.348;2023-07-31T06:17:33;2.60;;;2.30;;
19525;SDS011;9907;42.676;26.348;2023-07-31T06:19:58;4.90;;;2.67;;
19525;SDS011;9907;42.676;26.348;2023-07-31T06:22:24;3.17;;;2.50;;
19525;SDS011;9907;42.676;26.348;2023-07-31T06:24:49;5.17;;;2.60;;
19525;SDS011;9907;42.676;26.348;2023-07-31T06:27:15;3.53;;;2.70;;
19525;SDS011;9907;42.676;26.348;2023-07-31T06:29:40;5.50;;;2.90;;
19525;SDS011;9907;42.676;26.348;2023-07-31T06:32:07;3.50;;;2.90;;
19525;SDS011;9907;42.676;26.348;2023-07-31T06:34:33;12.00;;;3.73;;
19525;SDS011;9907;42.676;26.348;2023-07-31T06:36:58;5.60;;;2.97;;
19525;SDS011;9907;42.676;26.348;2023-07-31T06:39:23;3.60;;;2.77;;
19525;SDS011;9907;42.676;26.348;2023-07-31T06:41:49;4.13;;;3.17;;
19525;SDS011;9907;42.676;26.348;2023-07-31T06:44:15;4.30;;;3.23;;
19525;SDS011;9907;42.676;26.348;2023-07-31T06:46:42;4.97;;;3.00;;
19525;SDS011;9907;42.676;26.348;2023-07-31T06:49:07;7.13;;;3.27;;
19525;SDS011;9907;42.676;26.348;2023-07-31T06:51:33;8.37;;;3.70;;
19525;SDS011;9907;42.676;26.348;2023-07-31T06:53:58;19.00;;;8.43;;
19525;SDS011;9907;42.676;26.348;2023-07-31T06:56:24;20.03;;;10.63;;
19525;SDS011;9907;42.676;26.348;2023-07-31T06:58:51;9.77;;;5.90;;
19525;SDS011;9907;42.676;26.348;2023-07-31T07:01:16;8.17;;;4.80;;
19525;SDS011;9907;42.676;26.348;2023-07-31T07:03:41;9.43;;;5.60;;
19525;SDS011;9907;42.676;26.348;2023-07-31T07:06:07;6.13;;;4.47;;
19525;SDS011;9907;42.676;26.348;2023-07-31T07:08:32;8.03;;;4.63;;
19525;SDS011;9907;42.676;26.348;2023-07-31T07:10:58;10.30;;;5.23;;
19525;SDS011;9907;42.676;26.348;2023-07-31T07:13:23;7.87;;;4.87;;
19525;SDS011;9907;42.676;26.348;2023-07-31T07:15:49;8.30;;;5.13;;
19525;SDS011;9907;42.676;26.348;2023-07-31T07:18:15;10.17;;;7.87;;
19525;SDS011;9907;42.676;26.348;2023-07-31T07:20:46;11.10;;;6.37;;
19525;SDS011;9907;42.676;26.348;2023-07-31T07:23:15;9.17;;;5.40;;
19525;SDS011;9907;42.676;26.348;2023-07-31T07:25:41;7.70;;;4.80;;
19525;SDS011;9907;42.676;26.348;2023-07-31T07:28:07;8.30;;;5.03;;
19525;SDS011;9907;42.676;26.348;2023-07-31T07:30:32;12.50;;;5.47;;
19525;SDS011;9907;42.676;26.348;2023-07-31T07:32:58;10.77;;;6.00;;
19525;SDS011;9907;42.676;26.348;2023-07-31T07:35:23;7.60;;;4.73;;
19525;SDS011;9907;42.676;26.348;2023-07-31T07:37:49;6.87;;;4.30;;
19525;SDS011;9907;42.676;26.348;2023-07-31T07:40:17;7.47;;;4.47;;
19525;SDS011;9907;42.676;26.348;2023-07-31T07:42:42;5.67;;;4.63;;
19525;SDS011;9907;42.676;26.348;2023-07-31T07:45:08;7.47;;;5.40;;
19525;SDS011;9907;42.676;26.348;2023-07-31T07:47:34;9.00;;;4.30;;
19525;SDS011;9907;42.676;26.348;2023-07-31T07:49:59;5.90;;;4.17;;
19525;SDS011;9907;42.676;26.348;2023-07-31T07:52:24;5.73;;;4.53;;
19525;SDS011;9907;42.676;26.348;2023-07-31T07:54:50;6.90;;;4.13;;
19525;SDS011;9907;42.676;26.348;2023-07-31T07:57:16;5.00;;;4.10;;
19525;SDS011;9907;42.676;26.348;2023-07-31T07:59:41;7.20;;;4.87;;
19525;SDS011;9907;42.676;26.348;2023-07-31T08:02:07;5.93;;;4.63;;
19525;SDS011;9907;42.676;26.348;2023-07-31T08:04:32;9.90;;;5.90;;
19525;SDS011;9907;42.676;26.348;2023-07-31T08:06:58;8.87;;;5.40;;
19525;SDS011;9907;42.676;26.348;2023-07-31T08:09:23;7.97;;;5.20;;
19525;SDS011;9907;42.676;26.348;2023-07-31T08:11:49;6.63;;;5.83;;
19525;SDS011;9907;42.676;26.348;2023-07-31T08:14:14;7.57;;;5.53;;
19525;SDS011;9907;42.676;26.348;2023-07-31T08:16:40;7.63;;;6.10;;
19525;SDS011;9907;42.676;26.348;2023-07-31T08:19:05;8.10;;;6.10;;
19525;SDS011;9907;42.676;26.348;2023-07-31T08:21:31;7.00;;;6.30;;
19525;SDS011;9907;42.676;26.348;2023-07-31T08:23:57;6.23;;;5.43;;
19525;SDS011;9907;42.676;26.348;2023-07-31T08:26:22;7.53;;;5.17;;
19525;SDS011;9907;42.676;26.348;2023-07-31T08:28:48;8.43;;;5.90;;
19525;SDS011;9907;42.676;26.348;2023-07-31T08:31:14;8.07;;;7.27;;
19525;SDS011;9907;42.676;26.348;2023-07-31T08:33:39;6.20;;;5.60;;
19525;SDS011;9907;42.676;26.348;2023-07-31T08:36:07;10.37;;;7.80;;
19525;SDS011;9907;42.676;26.348;2023-07-31T08:38:33;7.40;;;6.63;;
19525;SDS011;9907;42.676;26.348;2023-07-31T08:40:58;7.30;;;6.53;;
19525;SDS011;9907;42.676;26.348;2023-07-31T08:43:27;10.23;;;7.83;;
19525;SDS011;9907;42.676;26.348;2023-07-31T08:45:53;9.77;;;7.33;;
19525;SDS011;9907;42.676;26.348;2023-07-31T08:48:19;7.37;;;6.67;;
19525;SDS011;9907;42.676;26.348;2023-07-31T08:50:46;7.30;;;6.60;;
19525;SDS011;9907;42.676;26.348;2023-07-31T08:53:11;7.20;;;6.20;;
19525;SDS011;9907;42.676;26.348;2023-07-31T08:55:37;7.87;;;6.43;;
19525;SDS011;9907;42.676;26.348;2023-07-31T08:58:04;7.43;;;6.60;;
19525;SDS011;9907;42.676;26.348;2023-07-31T09:00:30;8.03;;;6.60;;
19525;SDS011;9907;42.676;26.348;2023-07-31T09:02:59;8.27;;;7.47;;
19525;SDS011;9907;42.676;26.348;2023-07-31T09:05:27;7.33;;;6.53;;
19525;SDS011;9907;42.676;26.348;2023-07-31T09:07:54;7.73;;;7.10;;
19525;SDS011;9907;42.676;26.348;2023-07-31T09:10:21;8.07;;;6.43;;
19525;SDS011;9907;42.676;26.348;2023-07-31T09:12:46;8.87;;;8.03;;
19525;SDS011;9907;42.676;26.348;2023-07-31T09:15:14;9.47;;;8.67;;
19525;SDS011;9907;42.676;26.348;2023-07-31T09:17:39;10.07;;;8.63;;
19525;SDS011;9907;42.676;26.348;2023-07-31T09:20:18;9.73;;;8.80;;
19525;SDS011;9907;42.676;26.348;2023-07-31T09:22:46;13.70;;;8.47;;
19525;SDS011;9907;42.676;26.348;2023-07-31T09:25:23;10.73;;;9.73;;
19525;SDS011;9907;42.676;26.348;2023-07-31T09:30:20;24.03;;;10.13;;
19525;SDS011;9907;42.676;26.348;2023-07-31T09:32:46;19.43;;;10.77;;
19525;SDS011;9907;42.676;26.348;2023-07-31T09:37:47;9.53;;;7.57;;
19525;SDS011;9907;42.676;26.348;2023-07-31T09:40:24;7.77;;;7.07;;
19525;SDS011;9907;42.676;26.348;2023-07-31T09:43:00;10.47;;;9.30;;
19525;SDS011;9907;42.676;26.348;2023-07-31T09:45:28;7.00;;;6.40;;
19525;SDS011;9907;42.676;26.348;2023-07-31T09:47:54;13.70;;;11.77;;
19525;SDS011;9907;42.676;26.348;2023-07-31T09:50:21;6.67;;;5.97;;
19525;SDS011;9907;42.676;26.348;2023-07-31T09:52:49;6.13;;;5.60;;
19525;SDS011;9907;42.676;26.348;2023-07-31T09:55:15;6.63;;;6.03;;
19525;SDS011;9907;42.676;26.348;2023-07-31T09:57:41;7.47;;;6.80;;
19525;SDS011;9907;42.676;26.348;2023-07-31T10:00:09;6.63;;;5.87;;
19525;SDS011;9907;42.676;26.348;2023-07-31T10:02:36;6.87;;;6.27;;
19525;SDS011;9907;42.676;26.348;2023-07-31T10:05:03;7.33;;;6.23;;
19525;SDS011;9907;42.676;26.348;2023-07-31T10:07:29;8.10;;;6.17;;
19525;SDS011;9907;42.676;26.348;2023-07-31T10:09:57;5.70;;;5.20;;
19525;SDS011;9907;42.676;26.348;2023-07-31T10:12:28;5.70;;;5.23;;
19525;SDS011;9907;42.676;26.348;2023-07-31T10:14:54;6.07;;;5.57;;
19525;SDS011;9907;42.676;26.348;2023-07-31T10:17:21;5.73;;;4.47;;
19525;SDS011;9907;42.676;26.348;2023-07-31T10:19:48;6.50;;;5.93;;
19525;SDS011;9907;42.676;26.348;2023-07-31T10:22:16;7.17;;;6.57;;
19525;SDS011;9907;42.676;26.348;2023-07-31T10:24:43;7.50;;;6.83;;
19525;SDS011;9907;42.676;26.348;2023-07-31T10:27:10;9.80;;;7.97;;
19525;SDS011;9907;42.676;26.348;2023-07-31T10:29:37;8.73;;;7.50;;
19525;SDS011;9907;42.676;26.348;2023-07-31T10:32:07;6.47;;;5.97;;
19525;SDS011;9907;42.676;26.348;2023-07-31T10:34:36;7.07;;;6.37;;
19525;SDS011;9907;42.676;26.348;2023-07-31T10:37:22;14.60;;;12.87;;
19525;SDS011;9907;42.676;26.348;2023-07-31T10:40:26;12.13;;;11.03;;
19525;SDS011;9907;42.676;26.348;2023-07-31T10:42:52;9.07;;;7.57;;
19525;SDS011;9907;42.676;26.348;2023-07-31T10:48:14;7.00;;;6.40;;
19525;SDS011;9907;42.676;26.348;2023-07-31T10:50:51;7.83;;;7.13;;
19525;SDS011;9907;42.676;26.348;2023-07-31T10:55:49;8.27;;;7.57;;
19525;SDS011;9907;42.676;26.348;2023-07-31T10:58:17;7.73;;;7.10;;
19525;SDS011;9907;42.676;26.348;2023-07-31T11:00:44;7.03;;;6.43;;
19525;SDS011;9907;42.676;26.348;2023-07-31T11:03:12;32.63;;;28.93;;
19525;SDS011;9907;42.676;26.348;2023-07-31T11:05:48;21.40;;;19.10;;
19525;SDS011;9907;42.676;26.348;2023-07-31T11:13:32;6.07;;;5.67;;
19525;SDS011;9907;42.676;26.348;2023-07-31T11:15:59;7.40;;;5.97;;
19525;SDS011;9907;42.676;26.348;2023-07-31T11:18:25;6.60;;;6.10;;
19525;SDS011;9907;42.676;26.348;2023-07-31T11:20:52;7.67;;;6.30;;
19525;SDS011;9907;42.676;26.348;2023-07-31T11:23:19;7.67;;;6.97;;
19525;SDS011;9907;42.676;26.348;2023-07-31T11:25:45;7.37;;;6.77;;
19525;SDS011;9907;42.676;26.348;2023-07-31T11:28:11;6.77;;;6.27;;
19525;SDS011;9907;42.676;26.348;2023-07-31T11:30:38;6.90;;;6.30;;
19525;SDS011;9907;42.676;26.348;2023-07-31T11:33:06;6.80;;;6.20;;
19525;SDS011;9907;42.676;26.348;2023-07-31T11:35:32;6.67;;;6.07;;
19525;SDS011;9907;42.676;26.348;2023-07-31T11:37:59;7.37;;;6.50;;
19525;SDS011;9907;42.676;26.348;2023-07-31T11:40:26;5.90;;;5.50;;
19525;SDS011;9907;42.676;26.348;2023-07-31T11:42:55;6.73;;;6.10;;
19525;SDS011;9907;42.676;26.348;2023-07-31T11:45:24;7.97;;;6.20;;
19525;SDS011;9907;42.676;26.348;2023-07-31T11:47:51;7.40;;;6.70;;
19525;SDS011;9907;42.676;26.348;2023-07-31T11:50:17;6.47;;;5.87;;
19525;SDS011;9907;42.676;26.348;2023-07-31T11:52:43;8.23;;;7.53;;
19525;SDS011;9907;42.676;26.348;2023-07-31T11:55:11;7.20;;;5.90;;
19525;SDS011;9907;42.676;26.348;2023-07-31T11:57:38;7.27;;;6.20;;
19525;SDS011;9907;42.676;26.348;2023-07-31T12:00:06;6.50;;;5.90;;
19525;SDS011;9907;42.676;26.348;2023-07-31T12:02:33;6.27;;;5.77;;
19525;SDS011;9907;42.676;26.348;2023-07-31T12:04:59;6.27;;;5.77;;
19525;SDS011;9907;42.676;26.348;2023-07-31T12:07:25;6.43;;;5.93;;
19525;SDS011;9907;42.676;26.348;2023-07-31T12:09:54;7.30;;;6.70;;
19525;SDS011;9907;42.676;26.348;2023-07-31T12:12:23;6.10;;;5.67;;
19525;SDS011;9907;42.676;26.348;2023-07-31T12:14:50;7.50;;;6.80;;
19525;SDS011;9907;42.676;26.348;2023-07-31T12:17:17;6.30;;;5.70;;
19525;SDS011;9907;42.676;26.348;2023-07-31T12:19:44;9.73;;;8.83;;
19525;SDS011;9907;42.676;26.348;2023-07-31T12:22:13;10.10;;;9.17;;
19525;SDS011;9907;42.676;26.348;2023-07-31T12:24:42;7.27;;;6.67;;
19525;SDS011;9907;42.676;26.348;2023-07-31T12:27:15;6.13;;;5.60;;
19525;SDS011;9907;42.676;26.348;2023-07-31T12:29:42;7.20;;;6.50;;
19525;SDS011;9907;42.676;26.348;2023-07-31T12:32:19;6.87;;;6.27;;
19525;SDS011;9907;42.676;26.348;2023-07-31T12:34:53;7.03;;;6.33;;
19525;SDS011;9907;42.676;26.348;2023-07-31T12:37:20;6.33;;;5.73;;
19525;SDS011;9907;42.676;26.348;2023-07-31T12:39:46;7.63;;;6.93;;
19525;SDS011;9907;42.676;26.348;2023-07-31T12:42:12;6.93;;;6.33;;
19525;SDS011;9907;42.676;26.348;2023-07-31T12:44:37;9.03;;;8.20;;
19525;SDS011;9907;42.676;26.348;2023-07-31T12:47:03;6.53;;;6.03;;
19525;SDS011;9907;42.676;26.348;2023-07-31T12:49:29;8.10;;;6.30;;
19525;SDS011;9907;42.676;26.348;2023-07-31T12:51:54;7.60;;;6.90;;
19525;SDS011;9907;42.676;26.348;2023-07-31T12:54:20;7.87;;;7.17;;
19525;SDS011;9907;42.676;26.348;2023-07-31T12:56:45;7.40;;;6.70;;
19525;SDS011;9907;42.676;26.348;2023-07-31T12:59:11;7.77;;;7.17;;
19525;SDS011;9907;42.676;26.348;2023-07-31T13:01:36;6.30;;;5.80;;
19525;SDS011;9907;42.676;26.348;2023-07-31T13:04:02;7.03;;;6.33;;
19525;SDS011;9907;42.676;26.348;2023-07-31T13:06:27;6.80;;;6.30;;
19525;SDS011;9907;42.676;26.348;2023-07-31T13:08:52;6.60;;;6.10;;
19525;SDS011;9907;42.676;26.348;2023-07-31T13:11:18;6.27;;;5.67;;
19525;SDS011;9907;42.676;26.348;2023-07-31T13:13:43;6.33;;;5.83;;
19525;SDS011;9907;42.676;26.348;2023-07-31T13:16:09;6.40;;;5.90;;
19525;SDS011;9907;42.676;26.348;2023-07-31T13:18:34;6.13;;;5.63;;
19525;SDS011;9907;42.676;26.348;2023-07-31T13:21:00;6.10;;;5.60;;
19525;SDS011;9907;42.676;26.348;2023-07-31T13:23:25;6.50;;;5.83;;
19525;SDS011;9907;42.676;26.348;2023-07-31T13:25:51;6.60;;;6.00;;
19525;SDS011;9907;42.676;26.348;2023-07-31T13:28:16;7.53;;;6.93;;
19525;SDS011;9907;42.676;26.348;2023-07-31T13:30:42;7.63;;;7.00;;
19525;SDS011;9907;42.676;26.348;2023-07-31T13:33:07;12.73;;;6.83;;
19525;SDS011;9907;42.676;26.348;2023-07-31T13:35:32;8.63;;;7.20;;
19525;SDS011;9907;42.676;26.348;2023-07-31T13:37:58;6.60;;;6.10;;
19525;SDS011;9907;42.676;26.348;2023-07-31T13:40:23;8.00;;;6.97;;
19525;SDS011;9907;42.676;26.348;2023-07-31T13:42:49;6.63;;;6.03;;
19525;SDS011;9907;42.676;26.348;2023-07-31T13:45:14;8.27;;;6.33;;
19525;SDS011;9907;42.676;26.348;2023-07-31T13:47:40;6.83;;;6.23;;
19525;SDS011;9907;42.676;26.348;2023-07-31T13:50:05;6.63;;;6.03;;
19525;SDS011;9907;42.676;26.348;2023-07-31T13:52:31;7.37;;;6.20;;
19525;SDS011;9907;42.676;26.348;2023-07-31T13:54:57;6.37;;;5.87;;
19525;SDS011;9907;42.676;26.348;2023-07-31T13:57:22;5.53;;;5.13;;
19525;SDS011;9907;42.676;26.348;2023-07-31T13:59:48;9.93;;;7.33;;
19525;SDS011;9907;42.676;26.348;2023-07-31T14:02:14;5.97;;;5.37;;
19525;SDS011;9907;42.676;26.348;2023-07-31T14:04:40;8.97;;;6.53;;
19525;SDS011;9907;42.676;26.348;2023-07-31T14:07:05;6.87;;;6.27;;
19525;SDS011;9907;42.676;26.348;2023-07-31T14:09:31;10.03;;;6.00;;
19525;SDS011;9907;42.676;26.348;2023-07-31T14:11:56;6.23;;;5.73;;
19525;SDS011;9907;42.676;26.348;2023-07-31T14:14:22;6.53;;;5.90;;
19525;SDS011;9907;42.676;26.348;2023-07-31T14:16:47;6.40;;;5.83;;
19525;SDS011;9907;42.676;26.348;2023-07-31T14:19:13;6.63;;;5.87;;
19525;SDS011;9907;42.676;26.348;2023-07-31T14:21:38;6.83;;;6.13;;
19525;SDS011;9907;42.676;26.348;2023-07-31T14:24:04;6.00;;;5.50;;
19525;SDS011;9907;42.676;26.348;2023-07-31T14:26:29;6.07;;;5.57;;
19525;SDS011;9907;42.676;26.348;2023-07-31T14:28:55;6.37;;;5.87;;
19525;SDS011;9907;42.676;26.348;2023-07-31T14:31:20;7.37;;;6.63;;
19525;SDS011;9907;42.676;26.348;2023-07-31T14:33:46;7.83;;;6.03;;
19525;SDS011;9907;42.676;26.348;2023-07-31T14:36:11;5.40;;;4.90;;
19525;SDS011;9907;42.676;26.348;2023-07-31T14:38:37;5.60;;;5.20;;
19525;SDS011;9907;42.676;26.348;2023-07-31T14:41:02;5.90;;;5.50;;
19525;SDS011;9907;42.676;26.348;2023-07-31T14:43:27;5.73;;;5.33;;
19525;SDS011;9907;42.676;26.348;2023-07-31T14:45:53;6.10;;;5.53;;
19525;SDS011;9907;42.676;26.348;2023-07-31T14:48:21;5.93;;;5.50;;
19525;SDS011;9907;42.676;26.348;2023-07-31T14:50:46;6.90;;;6.27;;
19525;SDS011;9907;42.676;26.348;2023-07-31T14:53:12;6.40;;;5.83;;
19525;SDS011;9907;42.676;26.348;2023-07-31T14:55:37;7.33;;;6.67;;
19525;SDS011;9907;42.676;26.348;2023-07-31T14:58:03;6.60;;;6.00;;
19525;SDS011;9907;42.676;26.348;2023-07-31T15:00:28;7.77;;;6.97;;
19525;SDS011;9907;42.676;26.348;2023-07-31T15:02:55;11.17;;;10.07;;
19525;SDS011;9907;42.676;26.348;2023-07-31T15:05:24;8.63;;;7.83;;
19525;SDS011;9907;42.676;26.348;2023-07-31T15:07:50;6.23;;;5.70;;